BIKFCYDF

Guest
Details From BIKF - Keflavik Nas
To CYDF - Deer Lake
Flight Number -
Tags Generated
Created
Modified
Stats Distance 1,423 nm / 2,635 km
Max Altitude 0 ft / 0 m
Waypoints 3
Social Downloads 0
Likes 0
Share VATSIM

Download

Looking for another format? Having issues loading an existing format? Contact us
Advertisement - Login to hide

Notes

Generated

Route

BIKF FK CYDF

ID Type Via Altitude Latitude Longitude Leg Dist Tot Dist Heading (true) Name
O BIKF APT - 0 ft / 0 m 63.96448˚ -22.60545˚ - 0 nm - -
FK NDB - 0 ft / 0 m 49.26306˚ -57.30806˚ 1417 nm 1417 nm 248° / 219° JUNCTION NDB
O CYDF APT - 0 ft / 0 m 49.20533˚ -57.40033˚ 5 nm 1422 nm 226° / 226° -

Altitude Profile

Advertisement - Login to hide

Weather


0- 5 10 15 20 25 30 35+ Temperature / ° C

Clouds and Precipitation
Forecast for 2017-12-13 12:00 UTC. Updated 2 hours ago

Ground ~20,000 ft ~40,000 ft Winds

BIKF

Details ICAO BIKF (KEF)
Name Keflavik
Region Iceland
Timezone Atlantic/Reykjavik (UTC+0.0)
Stats Elevation 170 ft / 52 m (AMSL)
Location 63.981612° -22.614563°
Runways 2
Magnetic Variation 14.068° W

METAR

BIKF 131300Z 05004KT 9999 FEW025CB M00/M01 Q0979

Decode

TAF

TAF BIKF 130802Z 1309/1409 09010KT 9999 SCT030 BKN045 TXM00/1318Z TNM03/1403Z BECMG 1321/1324 03015KT

Decode

Departure Runways

ID Width Length Bearing (true) Bearing (mag) Surface Threshold Offset Overrun Length
02 197 ft / 60 m 9,997 ft / 3,047 m 0.02° 14.09° Asphalt 0 ft / 0 m 492 ft / 150 m
11 197 ft / 60 m 10,022 ft / 3,055 m 89.97° 104.04° Asphalt 0 ft / 0 m 246 ft / 75 m
20 197 ft / 60 m 9,997 ft / 3,047 m 180.02° 194.09° Asphalt 0 ft / 0 m 98 ft / 30 m
29 197 ft / 60 m 10,022 ft / 3,055 m 270.02° 284.09° Asphalt 0 ft / 0 m 197 ft / 60 m

CYDF

Details ICAO CYDF (YDF)
Name DEER LAKE
Region Canada
Timezone America/St_Johns (UTC-3.5)
Stats Elevation 72 ft / 22 m (AMSL)
Location 49.211000° -57.391246°
Runways 1
Magnetic Variation 19.134° W

METAR

CYDF 131300Z 05013KT 3SM -FZDZ OVC020 M02/M03 A2982 RMK SC8 SLP100

Decode

TAF

TAF AMD TAF AMD CYDF 131226Z 1312/1320 04012KT 11/2SM -SNPL -FZRA BR OVC007 TEMPO 1312/1315 6SM -SN OVC015 FM131500 07015G25KT 4SM -RA BR OVC006 TEMPO 1315/1320 P6SM NSW OVC012 RMK NXT FCST BY 131400Z

Decode

Destination Runways

ID Width Length Bearing (true) Bearing (mag) Surface Threshold Offset Overrun Length
07 151 ft / 46 m 5,989 ft / 1,825 m 46.32° 65.45° Asphalt 0 ft / 0 m 0 ft / 0 m
25 151 ft / 46 m 5,989 ft / 1,825 m 226.34° 245.47° Asphalt 0 ft / 0 m 0 ft / 0 m

Approach Navaids

Runway Type Ident Frequency Range Bearing (true) Bearing (mag) Slope Elevation
25 Localiser IDF 110.30 MHz 18 nm / 33 km 226.30° 245.43° - 72 ft / 22 m (AMSL)
25 Glidescope IDF 110.30 MHz 10 nm / 19 km 249.00° 268.13° 2.70° 72 ft / 22 m (AMSL)

Popular Alternatives